Aérodrome :
LOGIN :

S'inscrire | Disclaimer

   EN    FR    IT 

 










Légende :    VFR   VFR Marginal   IFR   IFR Intensif   IFR Très Intensif
Visi : 
Plafond : 
>= 8 km
>= 3000ft
5 à 8 km
1000 à 3000 ft
1500m à 5 km
500 à 1000 ft
800 à 1500m
200 à 500 ft
< 800m
< 200 ft
Symboles :   Orages  Brouillard  Fortes neiges  Fortes précipitations  Vent > 20 kt
SIGMETs :   Divers  Orages  Givrage  Turbulence  Onde Orograph.  Cendres Volcan.







- Altitude de l'aérodrome : 13 ft
- Code IATA : LYX
- Voir les cartes d'approche


EGMD - Lydd

DERNIER METAR :
  • 232120Z AUTO 23017KT 9999 OVC003/// 11/10 Q1016

METARs EXPIRÉS :
  • 232050Z AUTO 24017KT 6000 -RA OVC002/// 11/10 Q1016 RERA
  • 232020Z AUTO 23023KT 4200 -DZ OVC003/// 11/10 Q1016 RERA
  • 231950Z AUTO 23022KT 6000 -RA BKN003/// OVC006/// 11/10 Q1016
  • 231920Z AUTO 23019KT 4600 HZ BKN006/// BKN010/// OVC015/// 11/10 Q1016
  • 231850Z AUTO 23023KT 8000 FEW003/// BKN006/// BKN011/// 11/10 Q1016 REDZ

TAF AMD TAF EGMD
Valide du 23 à 21h jusqu'au 24 à 06h UTC


232129Z 2321/2406 22017KT 9999 BKN012
PROB30
TEMPO 2321/2402 23020G35KT 3000 -DZ OVC003
BECMG 2402/2405 22020G35KT
PROB30
TEMPO 2405/2406 22025G45KT
ATIS : +44 1797 322 422
Pas de NOTAMs connus pour ce terrain.
1 SIGMET publié pour la FIR London (EGTT) :
 
Onde orographique forte
EGTT SIGMET 02 VALID 231900/232300 EGRR
EGTT LONDON FIR SEV MTW FCST WI N5443 E00205 - N5356 W00137 - N5500 W00216 - N5500 W00100 - N5500 E00153 - N5443 E00205 SFC/FL150 STNR WKN=



MET'MAP, la Météo Aéronautique d'un coup d'oeil ! - Copyright ORBIFLY Décembre 2007 - Disclaimer

ORBIFLY MET'MAP TEAM :

Programmation & Développement : Alexandra Zaïnal
Conception & Développement : Baudouin d'Aumeries
Co-Programmation & Développement : Marc-Olivier Méhu
Soutien technique & logistique : Manuel Goepfert

Contact : metmap@orbifly.com




SOURCES & CREDITS :

   NOAA